GMMLGMAD

Guest
Details From GMML - HASSAN I
To GMAD - Agadir AL MASSIRA
Flight Number -
Tags generated
Created
Modified
Stats Distance 280 nm / 518 km
Max Altitude 23,500 ft / 7,163 m
Waypoints 4
Social Downloads 1
Likes 0
Share VATSIM

Download

Looking for another format? Having issues loading an existing format? Contact us
Advertisement - Login to hide

Notes

Basic altitude profile: - Ascent Rate: 2500ft/min - Ascent Speed: 250kts - Cruise Altitude: 35000ft - Cruise Speed: 420kts - Descent Rate: 1500ft/min - Descent Speed: 250kts Options: - Use NATs: yes - Use PACOTS: yes - Use low airways: no - Use high airways: yes

Route

GMML SOLNA UA600 ADM GMAD

ID Type Via Altitude Latitude Longitude Leg Dist Tot Dist Heading (true) Name
O GMML APT - 0 ft / 0 m 27.14365˚ -13.22540˚ - 0 nm - HASSAN I
SOLNA FIX - 15,400 ft / 4,694 m 27.66667˚ -12.59528˚ 45 nm 45 nm 47° / 47° -
ADM VOR UA600 (AWY-HI) 23,500 ft / 7,163 m 30.32194˚ -9.38333˚ 232 nm 278 nm 46° / 47° AGADIR VOR-DME
O GMAD APT - 0 ft / 0 m 30.32262˚ -9.41153˚ 1 nm 279 nm 272° / 272° Agadir AL MASSIRA

Altitude Profile

Advertisement - Login to hide

Weather


0- 5 10 15 20 25 30 35+ Temperature / ° C

Clouds and Precipitation
Forecast for 2017-12-16 18:00 UTC. Updated an hour ago

Ground ~20,000 ft ~40,000 ft Winds

GMML

Details ICAO GMML (EUN)
Name HASSAN I
Region Morocco
Timezone Africa/El_Aaiun (UTC+0.0)
Stats Elevation 207 ft / 63 m (AMSL)
Location 27.143650° -13.225399°
Runways 2
Magnetic Variation 3.957° W

METAR

GMML 161800Z 33010KT 9999 FEW020 19/16 Q1020 NOSIG

Decode

TAF

TAF GMML 161700Z 1618/1724 31012KT 9999 SCT020 SCT023

Decode

Departure Runways

ID Width Length Bearing (true) Bearing (mag) Surface Threshold Offset Overrun Length
02 148 ft / 45 m 8,890 ft / 2,710 m 16.42° 20.38° Asphalt 0 ft / 0 m 200 ft / 61 m
04 148 ft / 45 m 8,221 ft / 2,506 m 31.58° 35.54° Asphalt 0 ft / 0 m 0 ft / 0 m
20 148 ft / 45 m 8,890 ft / 2,710 m 196.43° 200.39° Asphalt 0 ft / 0 m 200 ft / 61 m
22 148 ft / 45 m 8,221 ft / 2,506 m 211.59° 215.55° Asphalt 0 ft / 0 m 658 ft / 201 m

GMAD

Details ICAO GMAD
Name Agadir AL MASSIRA
Region Morocco
Timezone Africa/Casablanca (UTC+0.0)
Stats Elevation 250 ft / 76 m (AMSL)
Location 30.322623° -9.411528°
Runways 1
Magnetic Variation 2.481° W

METAR

GMAD 161830Z 22005KT 180V250 8000 SCT006 BKN016 17/14 Q1018 NOSIG

Decode

TAF

TAF GMAD 161700Z 1618/1724 20008KT 8000 BKN016= TAF GMME 161700Z 1618/1724 32008KT 6000 SCT013 SCT020 TEMPO 1700/1706 160006KT TEMPO 1712/1718 04008KT 9999 SCT016

Decode

Destination Runways

ID Width Length Bearing (true) Bearing (mag) Surface Threshold Offset Overrun Length
10 148 ft / 45 m 10,509 ft / 3,203 m 91.58° 94.06° Asphalt 0 ft / 0 m 0 ft / 0 m
28 148 ft / 45 m 10,509 ft / 3,203 m 271.60° 274.08° Asphalt 0 ft / 0 m 0 ft / 0 m

Approach Navaids

Runway Type Ident Frequency Range Bearing (true) Bearing (mag) Slope Elevation
28 Localiser ADA 110.30 MHz 18 nm / 33 km 273.07° 275.55° - 250 ft / 76 m (AMSL)
28 Glidescope ADA 110.30 MHz 10 nm / 19 km 271.59° 274.07° 3.00° 250 ft / 76 m (AMSL)

Popular Alternatives